Interlink Veracity — V7GD4 — position and weather

sailwx.info

Track history (hours):
 
Tides and Currents Weather Stations Pressure Air Temp Water Temp Dewpoint Dewpoint Depression Visibility Wind Speed Wind Dir Waves Ship Positions

Interlink Veracity

Last reported at 2018-Jul-13 11:44 UTC. Time now 2018-Jul-17 05:32 UTC.
Position N 37°02' E 002°14'.

Length 179 m; draft 8.6 m.

Type: Cargo ship. MMSI: 538005694.

Date/timePositionNaut miles runAvg speedWind from/ knotsBaromVisibWave heightAir tempDewpointWater temp
2018-Jul-13 11:44N 37°02' E 002°14'9212.6
2018-Jul-13 04:27N 36°46' E 000°21'712.3
2018-Jul-13 03:51N 36°44' E 000°12'1112.2
2018-Jul-13 02:56N 36°42' W 000°02'612.2
2018-Jul-13 02:28N 36°41' W 000°08'2212.0
2018-Jul-13 00:39N 36°36' W 000°35'312.0
2018-Jul-13 00:26N 36°36' W 000°38'512.2
2018-Jul-13 00:00N 36°35' W 000°45'812.2
2018-Jul-12 23:19N 36°33' W 000°55'412.5
2018-Jul-12 23:00N 36°33' W 000°60'36813.1
2018-Jul-11 18:52N 36°05' W 008°35'512.6
2018-Jul-11 18:28N 36°07' W 008°41'3812.8
2018-Jul-11 15:27N 36°23' W 009°25'612.7
2018-Jul-11 15:00N 36°25' W 009°31'712.7
2018-Jul-11 14:29N 36°28' W 009°39'612.7
2018-Jul-11 14:00N 36°30' W 009°46'711.8
2018-Jul-11 13:24N 36°36' W 009°51'612.4
2018-Jul-11 12:55N 36°42' W 009°52'512.3
2018-Jul-11 12:30N 36°47' W 009°54'612.3
2018-Jul-11 12:01N 36°53' W 009°56'612.2
2018-Jul-11 11:31N 36°58' W 009°57'612.2
2018-Jul-11 11:01N 37°04' W 009°59'612.2
2018-Jul-11 10:30N 37°10' W 010°00'612.5
2018-Jul-11 10:00N 37°17' W 010°02'612.4
2018-Jul-11 09:30N 37°23' W 010°04'612.4
2018-Jul-11 09:00N 37°29' W 010°06'612.4
2018-Jul-11 08:30N 37°35' W 010°07'612.5
2018-Jul-11 08:00N 37°41' W 010°09'612.3
2018-Jul-11 07:30N 37°47' W 010°11'612.2
2018-Jul-11 07:00N 37°53' W 010°12'612.2
2018-Jul-11 06:30N 37°59' W 010°14'612.5
2018-Jul-11 06:00N 38°05' W 010°16'612.6
2018-Jul-11 05:30N 38°11' W 010°18'612.6
2018-Jul-11 05:00N 38°17' W 010°20'612.7
2018-Jul-11 04:30N 38°23' W 010°22'612.6
2018-Jul-11 04:01N 38°29' W 010°23'612.7
2018-Jul-11 03:30N 38°36' W 010°25'612.8
2018-Jul-11 03:00N 38°42' W 010°27'612.7
2018-Jul-11 02:30N 38°48' W 010°28'612.6
2018-Jul-11 02:00N 38°54' W 010°29'612.8
2018-Jul-11 01:30N 39°01' W 010°29'612.8
2018-Jul-11 01:00N 39°07' W 010°29'613.0
2018-Jul-11 00:30N 39°14' W 010°29'612.8
2018-Jul-11 00:00N 39°20' W 010°29'712.7
2018-Jul-10 23:29N 39°27' W 010°29'612.8
2018-Jul-10 23:00N 39°33' W 010°29'612.7
2018-Jul-10 22:30N 39°39' W 010°29'812.7
2018-Jul-10 21:54N 39°47' W 010°29'812.9
2018-Jul-10 21:19N 39°55' W 010°29'412.9
2018-Jul-10 20:59N 39°59' W 010°29'45611.9
2018-Jul-09 06:33N 47°15' W 007°30'212.2
2018-Jul-09 06:25N 47°17' W 007°28'512.0
2018-Jul-09 06:00N 47°21' W 007°25'612.0
2018-Jul-09 05:31N 47°26' W 007°20'713.0
2018-Jul-09 05:00N 47°32' W 007°15'813.2
2018-Jul-09 04:24N 47°39' W 007°09'1013.3
2018-Jul-09 03:38N 47°47' W 007°01'412.5
2018-Jul-09 03:18N 47°51' W 006°58'412.8
2018-Jul-09 02:59N 47°54' W 006°55'1013.2
2018-Jul-09 02:13N 48°03' W 006°46'312.6
2018-Jul-09 01:59N 48°05' W 006°44'612.3
2018-Jul-09 01:30N 48°10' W 006°40'712.6
2018-Jul-09 00:57N 48°17' W 006°34'612.0
2018-Jul-09 00:29N 48°21' W 006°30'612.1
2018-Jul-09 00:00N 48°26' W 006°26'612.1
2018-Jul-08 23:28N 48°32' W 006°20'511.7
2018-Jul-08 23:00N 48°36' W 006°16'612.0
2018-Jul-08 22:31N 48°42' W 006°12'611.6
2018-Jul-08 22:00N 48°47' W 006°07'612.2
2018-Jul-08 21:30N 48°52' W 006°02'612.0
2018-Jul-08 21:01N 48°57' W 005°57'611.8
2018-Jul-08 20:30N 49°00' W 005°50'612.5
2018-Jul-08 20:00N 49°03' W 005°42'612.8
2018-Jul-08 19:31N 49°06' W 005°33'612.9
2018-Jul-08 19:00N 49°09' W 005°25'712.8
2018-Jul-08 18:30N 49°12' W 005°16'3412.8
2018-Jul-08 15:50N 49°28' W 004°30'412.2
2018-Jul-08 15:30N 49°30' W 004°24'612.2
2018-Jul-08 15:00N 49°33' W 004°16'612.0
2018-Jul-08 14:29N 49°36' W 004°07'611.8
2018-Jul-08 13:58N 49°39' W 003°59'511.8
2018-Jul-08 13:30N 49°41' W 003°51'611.7
2018-Jul-08 13:00N 49°44' W 003°43'611.8
2018-Jul-08 12:30N 49°47' W 003°35'612.0
2018-Jul-08 11:58N 49°50' W 003°26'612.2
2018-Jul-08 11:30N 49°52' W 003°19'612.4
2018-Jul-08 11:00N 49°55' W 003°10'612.7
2018-Jul-08 10:30N 49°58' W 003°02'713.1
2018-Jul-08 10:00N 50°01' W 002°52'713.6
2018-Jul-08 09:30N 50°02' W 002°42'813.9
2018-Jul-08 08:57N 50°04' W 002°30'714.2
2018-Jul-08 08:27N 50°06' W 002°20'914.3
2018-Jul-08 07:51N 50°09' W 002°07'514.1
2018-Jul-08 07:30N 50°10' W 001°59'713.7
2018-Jul-08 07:00N 50°12' W 001°49'1412.8
2018-Jul-08 05:54N 50°15' W 001°28'511.9
2018-Jul-08 05:29N 50°17' W 001°20'611.6
2018-Jul-08 05:00N 50°18' W 001°12'511.0
2018-Jul-08 04:30N 50°19' W 001°03'510.6
2018-Jul-08 04:00N 50°21' W 000°55'510.4
2018-Jul-08 03:29N 50°22' W 000°47'510.3
2018-Jul-08 03:00N 50°24' W 000°40'510.3
2018-Jul-08 02:30N 50°25' W 000°32'510.8
2018-Jul-08 02:00N 50°26' W 000°24'611.3
2018-Jul-08 01:30N 50°28' W 000°15'811.8
2018-Jul-08 00:51N 50°30' W 000°03'412.3
2018-Jul-08 00:29N 50°31' E 000°03'612.5
2018-Jul-08 00:00N 50°32' E 000°13'612.7
2018-Jul-07 23:30N 50°34' E 000°22'612.8
2018-Jul-07 23:00N 50°36' E 000°32'612.7
2018-Jul-07 22:30N 50°39' E 000°41'612.6
2018-Jul-07 22:00N 50°43' E 000°49'612.3
2018-Jul-07 21:30N 50°46' E 000°57'612.1
2018-Jul-07 21:00N 50°50' E 001°04'611.7
2018-Jul-07 20:30N 50°54' E 001°11'611.4
2018-Jul-07 20:00N 50°58' E 001°17'510.6
2018-Jul-07 19:30N 51°02' E 001°23'510.7
2018-Jul-07 19:00N 51°05' E 001°30'510.9
2018-Jul-07 18:30N 51°09' E 001°37'611.0
2018-Jul-07 18:00N 51°12' E 001°44'611.3
2018-Jul-07 17:30N 51°17' E 001°49'611.9
2018-Jul-07 17:00N 51°22' E 001°53'611.8
2018-Jul-07 16:30N 51°25' E 002°02'612.0
2018-Jul-07 16:00N 51°22' E 002°11'611.8
2018-Jul-07 15:30N 51°21' E 002°20'713.5
2018-Jul-07 15:01N 51°23' E 002°30'713.1
2018-Jul-07 14:30N 51°23' E 002°40'611.9
2018-Jul-07 14:00N 51°22' E 002°50'613.1
2018-Jul-07 13:30N 51°24' E 003°00'612.4
2018-Jul-07 13:00N 51°24' E 003°10'713.5
2018-Jul-07 12:30N 51°24' E 003°21'612.5
2018-Jul-07 12:00N 51°25' E 003°31'510.4
2018-Jul-07 11:30N 51°27' E 003°39'612.1
2018-Jul-07 11:01N 51°22' E 003°45'3 6.7
2018-Jul-07 10:30N 51°20' E 003°49'0 0.2
2018-Jul-07 10:01N 51°20' E 003°49'3 5.0
2018-Jul-07 09:31N 51°17' E 003°50'3 6.1
2018-Jul-07 09:01N 51°14' E 003°49'3 6.3
2018-Jul-07 08:31N 51°11' E 003°48'3 6.4
2018-Jul-07 08:00N 51°08' E 003°46'2 5.0
2018-Jul-07 07:31N 51°06' E 003°45'0 0.3
2018-Jul-07 07:00N 51°06' E 003°45'0 0.0
2018-Jul-07 06:30N 51°06' E 003°45'0 0.0
2018-Jul-07 06:00N 51°06' E 003°45'0 0.0
2018-Jul-07 05:30N 51°06' E 003°45'0 0.0
2018-Jul-07 05:00N 51°06' E 003°45'0 0.0
2018-Jul-07 04:30N 51°06' E 003°45'0 0.0
2018-Jul-07 04:00N 51°06' E 003°45'0 0.0
2018-Jul-07 03:30N 51°06' E 003°45'0 0.0
2018-Jul-07 03:00N 51°06' E 003°45'0 0.0
2018-Jul-07 02:30N 51°06' E 003°45'0 0.0
2018-Jul-07 02:00N 51°06' E 003°45'0 0.0
2018-Jul-07 01:24N 51°06' E 003°45'0 0.0
2018-Jul-07 01:00N 51°06' E 003°45'0 0.0
2018-Jul-07 00:30N 51°06' E 003°45'0 0.0
2018-Jul-07 00:00N 51°06' E 003°45'0 0.0
2018-Jul-06 23:30N 51°06' E 003°45'0 0.0
2018-Jul-06 23:00N 51°06' E 003°45'0 0.0
2018-Jul-06 22:30N 51°06' E 003°45'0 0.0
2018-Jul-06 22:00N 51°06' E 003°45'0 0.0
2018-Jul-06 21:30N 51°06' E 003°45'0 0.0
2018-Jul-06 20:54N 51°06' E 003°45'0 0.0
2018-Jul-06 20:27N 51°06' E 003°45'0 0.0
2018-Jul-06 20:00N 51°06' E 003°45'0 0.0
2018-Jul-06 19:30N 51°06' E 003°45'0 0.0
2018-Jul-06 18:57N 51°06' E 003°45'0 0.0
2018-Jul-06 18:30N 51°06' E 003°45'0 0.0
2018-Jul-06 17:57N 51°06' E 003°45'0 0.0
2018-Jul-06 17:30N 51°06' E 003°45'0 0.0
2018-Jul-06 16:57N 51°06' E 003°45'0 0.0
2018-Jul-06 16:30N 51°06' E 003°45'0 0.0
2018-Jul-06 16:00N 51°06' E 003°45'0 0.0
2018-Jul-06 15:27N 51°06' E 003°45'0 0.0
2018-Jul-06 15:00N 51°06' E 003°45'0 0.0
2018-Jul-06 14:24N 51°06' E 003°45'0 0.0
2018-Jul-06 14:00N 51°06' E 003°45'0 0.0
2018-Jul-06 13:30N 51°06' E 003°45'0 0.0
2018-Jul-06 12:57N 51°06' E 003°45'0 0.0
2018-Jul-06 12:30N 51°06' E 003°45'0 0.0
2018-Jul-06 12:00N 51°06' E 003°45'0 0.0
2018-Jul-06 11:30N 51°06' E 003°45'0 0.0
2018-Jul-06 11:00N 51°06' E 003°45'0 0.0
2018-Jul-06 10:30N 51°06' E 003°45'0 0.0
2018-Jul-06 09:57N 51°06' E 003°45'0 0.0
2018-Jul-06 09:30N 51°06' E 003°45'0 0.0
2018-Jul-06 09:00N 51°06' E 003°45'0 0.0
2018-Jul-06 08:30N 51°06' E 003°45'0 0.0
2018-Jul-06 08:00N 51°06' E 003°45'0 0.0
2018-Jul-06 07:30N 51°06' E 003°45'0 0.0
2018-Jul-06 07:00N 51°06' E 003°45'0 0.0
2018-Jul-06 06:30N 51°06' E 003°45'0 0.0
2018-Jul-06 05:57N 51°06' E 003°45'0 0.0
2018-Jul-06 05:30N 51°06' E 003°45'0 0.0
2018-Jul-06 05:00N 51°06' E 003°45'0 0.0
2018-Jul-06 04:30N 51°06' E 003°45'0 0.0
2018-Jul-06 03:54N 51°06' E 003°45'0 0.0
2018-Jul-06 03:24N 51°06' E 003°45'0 0.0
2018-Jul-06 03:00N 51°06' E 003°45'0 0.0
2018-Jul-06 02:30N 51°06' E 003°45'0 0.0
2018-Jul-06 02:00N 51°06' E 003°45'0 0.0
2018-Jul-06 01:27N 51°06' E 003°45'0 0.0
2018-Jul-06 00:57N 51°06' E 003°45'0 0.0
2018-Jul-06 00:30N 51°06' E 003°45'0 0.0
2018-Jul-06 00:00N 51°06' E 003°45'0 0.0
2018-Jul-05 23:30N 51°06' E 003°45'0 0.0
2018-Jul-05 23:00N 51°06' E 003°45'0 0.0
2018-Jul-05 22:30N 51°06' E 003°45'0 0.0
2018-Jul-05 22:00N 51°06' E 003°45'0 0.0
2018-Jul-05 21:30N 51°06' E 003°45'0 0.0
2018-Jul-05 20:54N 51°06' E 003°45'0 0.0
2018-Jul-05 20:27N 51°06' E 003°45'0 0.0
2018-Jul-05 20:00N 51°06' E 003°45'0 0.0
2018-Jul-05 19:30N 51°06' E 003°45'0 0.0
2018-Jul-05 19:00N 51°06' E 003°45'0 0.0
2018-Jul-05 18:30N 51°06' E 003°45'0 0.0
2018-Jul-05 18:00N 51°06' E 003°45'0 0.0
2018-Jul-05 17:30N 51°06' E 003°45'0 0.0
2018-Jul-05 17:00N 51°06' E 003°45'0 0.0
2018-Jul-05 16:27N 51°06' E 003°45'0 0.0
2018-Jul-05 16:00N 51°06' E 003°45'0 0.0
2018-Jul-05 15:30N 51°06' E 003°45'0 0.0
2018-Jul-05 14:54N 51°06' E 003°45'0 0.0
2018-Jul-05 14:30N 51°06' E 003°45'0 0.1
2018-Jul-05 13:30N 51°06' E 003°45'0 0.0
2018-Jul-05 13:00N 51°06' E 003°45'0 0.0
2018-Jul-05 12:30N 51°06' E 003°45'0 0.0
2018-Jul-05 11:54N 51°06' E 003°45'0 0.0
2018-Jul-05 11:30N 51°06' E 003°45'0 0.0
2018-Jul-05 10:57N 51°06' E 003°45'0 0.0
2018-Jul-05 10:27N 51°06' E 003°45'0 0.0
2018-Jul-05 10:00N 51°06' E 003°45'0 0.0
2018-Jul-05 09:18N 51°06' E 003°45'0 0.0
2018-Jul-05 09:00N 51°06' E 003°45'0 0.0
2018-Jul-05 08:30N 51°06' E 003°45'0 0.0
2018-Jul-05 08:00N 51°06' E 003°45'0 0.0
2018-Jul-05 07:30N 51°06' E 003°45'0 0.0
2018-Jul-05 07:00N 51°06' E 003°45'0 0.0
2018-Jul-05 06:30N 51°06' E 003°45'0 0.0
2018-Jul-05 06:00N 51°06' E 003°45'0 0.0
2018-Jul-05 05:30N 51°06' E 003°45'0 0.0
2018-Jul-05 05:00N 51°06' E 003°45'0 0.0
2018-Jul-05 04:30N 51°06' E 003°45'0 0.0
2018-Jul-05 03:57N 51°06' E 003°45'0 0.0
2018-Jul-05 03:30N 51°06' E 003°45'0 0.0
2018-Jul-05 03:00N 51°06' E 003°45'0 0.0
2018-Jul-05 02:30N 51°06' E 003°45'0 0.0
2018-Jul-05 02:00N 51°06' E 003°45'0 0.0
2018-Jul-05 01:30N 51°06' E 003°45'0 0.0
2018-Jul-05 00:51N 51°06' E 003°45'0 0.0
2018-Jul-05 00:30N 51°06' E 003°45'0 0.0
2018-Jul-05 00:00N 51°06' E 003°45'0 0.0
2018-Jul-04 23:30N 51°06' E 003°45'0 0.0
2018-Jul-04 22:51N 51°06' E 003°45'0 0.0
2018-Jul-04 22:24N 51°06' E 003°45'0 0.0
2018-Jul-04 22:00N 51°06' E 003°45'0 0.0
2018-Jul-04 21:24N 51°06' E 003°45'0 0.0
2018-Jul-04 20:54N 51°06' E 003°45'0 0.0
2018-Jul-04 20:30N 51°06' E 003°45'0 0.0
2018-Jul-04 20:00N 51°06' E 003°45'0 0.0
2018-Jul-04 19:27N 51°06' E 003°45'0 0.0
2018-Jul-04 18:57N 51°06' E 003°45'0 0.0
2018-Jul-04 18:30N 51°06' E 003°45'0 0.0
2018-Jul-04 17:57N 51°06' E 003°45'0 0.0
2018-Jul-04 17:27N 51°06' E 003°45'0 0.0
2018-Jul-04 17:00N 51°06' E 003°45'0 0.0
2018-Jul-04 16:27N 51°06' E 003°45'0 0.0
2018-Jul-04 16:00N 51°06' E 003°45'0 0.0
2018-Jul-04 15:23N 51°06' E 003°45'0 0.0
2018-Jul-04 14:57N 51°06' E 003°45'0 0.0
2018-Jul-04 14:30N 51°06' E 003°45'0 0.0
2018-Jul-04 14:00N 51°06' E 003°45'0 0.0
2018-Jul-04 13:27N 51°06' E 003°45'0 0.0
2018-Jul-04 12:57N 51°06' E 003°45'0 0.0
2018-Jul-04 12:27N 51°06' E 003°45'0 0.0
2018-Jul-04 12:00N 51°06' E 003°45'0 0.0
2018-Jul-04 11:30N 51°06' E 003°45'0 0.0
2018-Jul-04 10:59N 51°06' E 003°45'0 0.0
2018-Jul-04 10:26N 51°06' E 003°45'0 0.0
2018-Jul-04 10:00N 51°06' E 003°45'0 0.0
2018-Jul-04 09:29N 51°06' E 003°45'0 0.0
2018-Jul-04 08:59N 51°06' E 003°45'0 0.0
2018-Jul-04 08:26N 51°06' E 003°45'0 0.0
2018-Jul-04 07:59N 51°06' E 003°45'0 0.0
2018-Jul-04 07:26N 51°06' E 003°45'0 0.0
2018-Jul-04 07:00N 51°06' E 003°45'0 0.0
2018-Jul-04 06:30N 51°06' E 003°45'0 0.0
2018-Jul-04 05:56N 51°06' E 003°45'0 0.0
2018-Jul-04 05:30N 51°06' E 003°45'0 0.0
2018-Jul-04 04:56N 51°06' E 003°45'0 0.0
2018-Jul-04 04:21N 51°06' E 003°45'0 0.0
2018-Jul-04 03:59N 51°06' E 003°45'0 0.0
2018-Jul-04 03:24N 51°06' E 003°45'0 0.0
2018-Jul-04 02:59N 51°06' E 003°45'0 0.0
2018-Jul-04 02:29N 51°06' E 003°45'0 0.0
2018-Jul-04 01:53N 51°06' E 003°45'0 0.0
2018-Jul-04 01:26N 51°06' E 003°45'0 0.0
2018-Jul-04 01:00N 51°06' E 003°45'0 0.0
2018-Jul-04 00:27N 51°06' E 003°45'0 0.0
2018-Jul-03 23:59N 51°06' E 003°45'0 0.0
2018-Jul-03 23:30N 51°06' E 003°45'0 0.0
2018-Jul-03 22:59N 51°06' E 003°45'0 0.0
2018-Jul-03 22:29N 51°06' E 003°45'0 0.0
2018-Jul-03 21:59N 51°06' E 003°45'0 0.0
2018-Jul-03 21:29N 51°06' E 003°45'0 0.0
2018-Jul-03 20:56N 51°06' E 003°45'0 0.0
2018-Jul-03 20:29N 51°06' E 003°45'0 0.0
2018-Jul-03 19:59N 51°06' E 003°45'0 0.0
2018-Jul-03 19:29N 51°06' E 003°45'0 0.0
2018-Jul-03 18:57N 51°06' E 003°45'0 0.0
2018-Jul-03 18:29N 51°06' E 003°45'0 1.0
2018-Jul-03 18:00N 51°06' E 003°45'2 3.8
2018-Jul-03 17:31N 51°08' E 003°46'2 4.4
2018-Jul-03 17:00N 51°10' E 003°47'2 4.7
2018-Jul-03 16:30N 51°12' E 003°48'2 4.8
2018-Jul-03 16:00N 51°14' E 003°49'2 4.1
2018-Jul-03 15:30N 51°16' E 003°50'2 4.2
2018-Jul-03 15:00N 51°18' E 003°50'1 3.0
2018-Jul-03 14:30N 51°20' E 003°49'0 0.2
2018-Jul-03 14:00N 51°20' E 003°49'1 1.4
2018-Jul-03 13:30N 51°20' E 003°49'2 4.2
2018-Jul-03 13:00N 51°22' E 003°46'4 7.2
2018-Jul-03 12:30N 51°25' E 003°42'4 8.9
2018-Jul-03 12:00N 51°26' E 003°36'  
Track history (hours):
 
Tides and Currents Weather Stations Pressure Air Temp Water Temp Dewpoint Dewpoint Depression Visibility Wind Speed Wind Dir Waves Ship Positions

Interlink Veracity

Last reported at 2018-Jul-13 11:44 UTC. Time now 2018-Jul-17 05:32 UTC.
Position N 37°02' E 002°14'.

Length 179 m; draft 8.6 m.

Type: Cargo ship. MMSI: 538005694.

Date/timePositionNaut miles runAvg speedWind from/ knotsBaromVisibWave heightAir tempDewpointWater temp
2018-Jul-13 11:44N 37°02' E 002°14'9212.6
2018-Jul-13 04:27N 36°46' E 000°21'712.3
2018-Jul-13 03:51N 36°44' E 000°12'1112.2
2018-Jul-13 02:56N 36°42' W 000°02'612.2
2018-Jul-13 02:28N 36°41' W 000°08'2212.0
2018-Jul-13 00:39N 36°36' W 000°35'312.0
2018-Jul-13 00:26N 36°36' W 000°38'512.2
2018-Jul-13 00:00N 36°35' W 000°45'812.2
2018-Jul-12 23:19N 36°33' W 000°55'412.5
2018-Jul-12 23:00N 36°33' W 000°60'36813.1
2018-Jul-11 18:52N 36°05' W 008°35'512.6
2018-Jul-11 18:28N 36°07' W 008°41'3812.8
2018-Jul-11 15:27N 36°23' W 009°25'612.7
2018-Jul-11 15:00N 36°25' W 009°31'712.7
2018-Jul-11 14:29N 36°28' W 009°39'612.7
2018-Jul-11 14:00N 36°30' W 009°46'711.8
2018-Jul-11 13:24N 36°36' W 009°51'612.4
2018-Jul-11 12:55N 36°42' W 009°52'512.3
2018-Jul-11 12:30N 36°47' W 009°54'612.3
2018-Jul-11 12:01N 36°53' W 009°56'612.2
2018-Jul-11 11:31N 36°58' W 009°57'612.2
2018-Jul-11 11:01N 37°04' W 009°59'612.2
2018-Jul-11 10:30N 37°10' W 010°00'612.5
2018-Jul-11 10:00N 37°17' W 010°02'612.4
2018-Jul-11 09:30N 37°23' W 010°04'612.4
2018-Jul-11 09:00N 37°29' W 010°06'612.4
2018-Jul-11 08:30N 37°35' W 010°07'612.5
2018-Jul-11 08:00N 37°41' W 010°09'612.3
2018-Jul-11 07:30N 37°47' W 010°11'612.2
2018-Jul-11 07:00N 37°53' W 010°12'612.2
2018-Jul-11 06:30N 37°59' W 010°14'612.5
2018-Jul-11 06:00N 38°05' W 010°16'612.6
2018-Jul-11 05:30N 38°11' W 010°18'612.6
2018-Jul-11 05:00N 38°17' W 010°20'612.7
2018-Jul-11 04:30N 38°23' W 010°22'612.6
2018-Jul-11 04:01N 38°29' W 010°23'612.7
2018-Jul-11 03:30N 38°36' W 010°25'612.8
2018-Jul-11 03:00N 38°42' W 010°27'612.7
2018-Jul-11 02:30N 38°48' W 010°28'612.6
2018-Jul-11 02:00N 38°54' W 010°29'612.8
2018-Jul-11 01:30N 39°01' W 010°29'612.8
2018-Jul-11 01:00N 39°07' W 010°29'613.0
2018-Jul-11 00:30N 39°14' W 010°29'612.8
2018-Jul-11 00:00N 39°20' W 010°29'712.7
2018-Jul-10 23:29N 39°27' W 010°29'612.8
2018-Jul-10 23:00N 39°33' W 010°29'612.7
2018-Jul-10 22:30N 39°39' W 010°29'812.7
2018-Jul-10 21:54N 39°47' W 010°29'812.9
2018-Jul-10 21:19N 39°55' W 010°29'412.9
2018-Jul-10 20:59N 39°59' W 010°29'45611.9
2018-Jul-09 06:33N 47°15' W 007°30'212.2
2018-Jul-09 06:25N 47°17' W 007°28'512.0
2018-Jul-09 06:00N 47°21' W 007°25'612.0
2018-Jul-09 05:31N 47°26' W 007°20'713.0
2018-Jul-09 05:00N 47°32' W 007°15'813.2
2018-Jul-09 04:24N 47°39' W 007°09'1013.3
2018-Jul-09 03:38N 47°47' W 007°01'412.5
2018-Jul-09 03:18N 47°51' W 006°58'412.8
2018-Jul-09 02:59N 47°54' W 006°55'1013.2
2018-Jul-09 02:13N 48°03' W 006°46'312.6
2018-Jul-09 01:59N 48°05' W 006°44'612.3
2018-Jul-09 01:30N 48°10' W 006°40'712.6
2018-Jul-09 00:57N 48°17' W 006°34'612.0
2018-Jul-09 00:29N 48°21' W 006°30'612.1
2018-Jul-09 00:00N 48°26' W 006°26'612.1
2018-Jul-08 23:28N 48°32' W 006°20'511.7
2018-Jul-08 23:00N 48°36' W 006°16'612.0
2018-Jul-08 22:31N 48°42' W 006°12'611.6
2018-Jul-08 22:00N 48°47' W 006°07'612.2
2018-Jul-08 21:30N 48°52' W 006°02'612.0
2018-Jul-08 21:01N 48°57' W 005°57'611.8
2018-Jul-08 20:30N 49°00' W 005°50'612.5
2018-Jul-08 20:00N 49°03' W 005°42'612.8
2018-Jul-08 19:31N 49°06' W 005°33'612.9
2018-Jul-08 19:00N 49°09' W 005°25'712.8
2018-Jul-08 18:30N 49°12' W 005°16'3412.8
2018-Jul-08 15:50N 49°28' W 004°30'412.2
2018-Jul-08 15:30N 49°30' W 004°24'612.2
2018-Jul-08 15:00N 49°33' W 004°16'612.0
2018-Jul-08 14:29N 49°36' W 004°07'611.8
2018-Jul-08 13:58N 49°39' W 003°59'511.8
2018-Jul-08 13:30N 49°41' W 003°51'611.7
2018-Jul-08 13:00N 49°44' W 003°43'611.8
2018-Jul-08 12:30N 49°47' W 003°35'612.0
2018-Jul-08 11:58N 49°50' W 003°26'612.2
2018-Jul-08 11:30N 49°52' W 003°19'612.4
2018-Jul-08 11:00N 49°55' W 003°10'612.7
2018-Jul-08 10:30N 49°58' W 003°02'713.1
2018-Jul-08 10:00N 50°01' W 002°52'713.6
2018-Jul-08 09:30N 50°02' W 002°42'813.9
2018-Jul-08 08:57N 50°04' W 002°30'714.2
2018-Jul-08 08:27N 50°06' W 002°20'914.3
2018-Jul-08 07:51N 50°09' W 002°07'514.1
2018-Jul-08 07:30N 50°10' W 001°59'713.7
2018-Jul-08 07:00N 50°12' W 001°49'1412.8
2018-Jul-08 05:54N 50°15' W 001°28'511.9
2018-Jul-08 05:29N 50°17' W 001°20'611.6
2018-Jul-08 05:00N 50°18' W 001°12'511.0
2018-Jul-08 04:30N 50°19' W 001°03'510.6
2018-Jul-08 04:00N 50°21' W 000°55'510.4
2018-Jul-08 03:29N 50°22' W 000°47'510.3
2018-Jul-08 03:00N 50°24' W 000°40'510.3
2018-Jul-08 02:30N 50°25' W 000°32'510.8
2018-Jul-08 02:00N 50°26' W 000°24'611.3
2018-Jul-08 01:30N 50°28' W 000°15'811.8
2018-Jul-08 00:51N 50°30' W 000°03'412.3
2018-Jul-08 00:29N 50°31' E 000°03'612.5
2018-Jul-08 00:00N 50°32' E 000°13'612.7
2018-Jul-07 23:30N 50°34' E 000°22'612.8
2018-Jul-07 23:00N 50°36' E 000°32'612.7
2018-Jul-07 22:30N 50°39' E 000°41'612.6
2018-Jul-07 22:00N 50°43' E 000°49'612.3
2018-Jul-07 21:30N 50°46' E 000°57'612.1
2018-Jul-07 21:00N 50°50' E 001°04'611.7
2018-Jul-07 20:30N 50°54' E 001°11'611.4
2018-Jul-07 20:00N 50°58' E 001°17'510.6
2018-Jul-07 19:30N 51°02' E 001°23'510.7
2018-Jul-07 19:00N 51°05' E 001°30'510.9
2018-Jul-07 18:30N 51°09' E 001°37'611.0
2018-Jul-07 18:00N 51°12' E 001°44'611.3
2018-Jul-07 17:30N 51°17' E 001°49'611.9
2018-Jul-07 17:00N 51°22' E 001°53'611.8
2018-Jul-07 16:30N 51°25' E 002°02'612.0
2018-Jul-07 16:00N 51°22' E 002°11'611.8
2018-Jul-07 15:30N 51°21' E 002°20'713.5
2018-Jul-07 15:01N 51°23' E 002°30'713.1
2018-Jul-07 14:30N 51°23' E 002°40'611.9
2018-Jul-07 14:00N 51°22' E 002°50'613.1
2018-Jul-07 13:30N 51°24' E 003°00'612.4
2018-Jul-07 13:00N 51°24' E 003°10'713.5
2018-Jul-07 12:30N 51°24' E 003°21'612.5
2018-Jul-07 12:00N 51°25' E 003°31'510.4
2018-Jul-07 11:30N 51°27' E 003°39'612.1
2018-Jul-07 11:01N 51°22' E 003°45'3 6.7
2018-Jul-07 10:30N 51°20' E 003°49'0 0.2
2018-Jul-07 10:01N 51°20' E 003°49'3 5.0
2018-Jul-07 09:31N 51°17' E 003°50'3 6.1
2018-Jul-07 09:01N 51°14' E 003°49'3 6.3
2018-Jul-07 08:31N 51°11' E 003°48'3 6.4
2018-Jul-07 08:00N 51°08' E 003°46'2 5.0
2018-Jul-07 07:31N 51°06' E 003°45'0 0.3
2018-Jul-07 07:00N 51°06' E 003°45'0 0.0
2018-Jul-07 06:30N 51°06' E 003°45'0 0.0
2018-Jul-07 06:00N 51°06' E 003°45'0 0.0
2018-Jul-07 05:30N 51°06' E 003°45'0 0.0
2018-Jul-07 05:00N 51°06' E 003°45'0 0.0
2018-Jul-07 04:30N 51°06' E 003°45'0 0.0
2018-Jul-07 04:00N 51°06' E 003°45'0 0.0
2018-Jul-07 03:30N 51°06' E 003°45'0 0.0
2018-Jul-07 03:00N 51°06' E 003°45'0 0.0
2018-Jul-07 02:30N 51°06' E 003°45'0 0.0
2018-Jul-07 02:00N 51°06' E 003°45'0 0.0
2018-Jul-07 01:24N 51°06' E 003°45'0 0.0
2018-Jul-07 01:00N 51°06' E 003°45'0 0.0
2018-Jul-07 00:30N 51°06' E 003°45'0 0.0
2018-Jul-07 00:00N 51°06' E 003°45'0 0.0
2018-Jul-06 23:30N 51°06' E 003°45'0 0.0
2018-Jul-06 23:00N 51°06' E 003°45'0 0.0
2018-Jul-06 22:30N 51°06' E 003°45'0 0.0
2018-Jul-06 22:00N 51°06' E 003°45'0 0.0
2018-Jul-06 21:30N 51°06' E 003°45'0 0.0
2018-Jul-06 20:54N 51°06' E 003°45'0 0.0
2018-Jul-06 20:27N 51°06' E 003°45'0 0.0
2018-Jul-06 20:00N 51°06' E 003°45'0 0.0
2018-Jul-06 19:30N 51°06' E 003°45'0 0.0
2018-Jul-06 18:57N 51°06' E 003°45'0 0.0
2018-Jul-06 18:30N 51°06' E 003°45'0 0.0
2018-Jul-06 17:57N 51°06' E 003°45'0 0.0
2018-Jul-06 17:30N 51°06' E 003°45'0 0.0
2018-Jul-06 16:57N 51°06' E 003°45'0 0.0
2018-Jul-06 16:30N 51°06' E 003°45'0 0.0
2018-Jul-06 16:00N 51°06' E 003°45'0 0.0
2018-Jul-06 15:27N 51°06' E 003°45'0 0.0
2018-Jul-06 15:00N 51°06' E 003°45'0 0.0
2018-Jul-06 14:24N 51°06' E 003°45'0 0.0
2018-Jul-06 14:00N 51°06' E 003°45'0 0.0
2018-Jul-06 13:30N 51°06' E 003°45'0 0.0
2018-Jul-06 12:57N 51°06' E 003°45'0 0.0
2018-Jul-06 12:30N 51°06' E 003°45'0 0.0
2018-Jul-06 12:00N 51°06' E 003°45'0 0.0
2018-Jul-06 11:30N 51°06' E 003°45'0 0.0
2018-Jul-06 11:00N 51°06' E 003°45'0 0.0
2018-Jul-06 10:30N 51°06' E 003°45'0 0.0
2018-Jul-06 09:57N 51°06' E 003°45'0 0.0
2018-Jul-06 09:30N 51°06' E 003°45'0 0.0
2018-Jul-06 09:00N 51°06' E 003°45'0 0.0
2018-Jul-06 08:30N 51°06' E 003°45'0 0.0
2018-Jul-06 08:00N 51°06' E 003°45'0 0.0
2018-Jul-06 07:30N 51°06' E 003°45'0 0.0
2018-Jul-06 07:00N 51°06' E 003°45'0 0.0
2018-Jul-06 06:30N 51°06' E 003°45'0 0.0
2018-Jul-06 05:57N 51°06' E 003°45'0 0.0
2018-Jul-06 05:30N 51°06' E 003°45'0 0.0
2018-Jul-06 05:00N 51°06' E 003°45'0 0.0
2018-Jul-06 04:30N 51°06' E 003°45'0 0.0
2018-Jul-06 03:54N 51°06' E 003°45'0 0.0
2018-Jul-06 03:24N 51°06' E 003°45'0 0.0
2018-Jul-06 03:00N 51°06' E 003°45'0 0.0
2018-Jul-06 02:30N 51°06' E 003°45'0 0.0
2018-Jul-06 02:00N 51°06' E 003°45'0 0.0
2018-Jul-06 01:27N 51°06' E 003°45'0 0.0
2018-Jul-06 00:57N 51°06' E 003°45'0 0.0
2018-Jul-06 00:30N 51°06' E 003°45'0 0.0
2018-Jul-06 00:00N 51°06' E 003°45'0 0.0
2018-Jul-05 23:30N 51°06' E 003°45'0 0.0
2018-Jul-05 23:00N 51°06' E 003°45'0 0.0
2018-Jul-05 22:30N 51°06' E 003°45'0 0.0
2018-Jul-05 22:00N 51°06' E 003°45'0 0.0
2018-Jul-05 21:30N 51°06' E 003°45'0 0.0
2018-Jul-05 20:54N 51°06' E 003°45'0 0.0
2018-Jul-05 20:27N 51°06' E 003°45'0 0.0
2018-Jul-05 20:00N 51°06' E 003°45'0 0.0
2018-Jul-05 19:30N 51°06' E 003°45'0 0.0
2018-Jul-05 19:00N 51°06' E 003°45'0 0.0
2018-Jul-05 18:30N 51°06' E 003°45'0 0.0
2018-Jul-05 18:00N 51°06' E 003°45'0 0.0
2018-Jul-05 17:30N 51°06' E 003°45'0 0.0
2018-Jul-05 17:00N 51°06' E 003°45'0 0.0
2018-Jul-05 16:27N 51°06' E 003°45'0 0.0
2018-Jul-05 16:00N 51°06' E 003°45'0 0.0
2018-Jul-05 15:30N 51°06' E 003°45'0 0.0
2018-Jul-05 14:54N 51°06' E 003°45'0 0.0
2018-Jul-05 14:30N 51°06' E 003°45'0 0.1
2018-Jul-05 13:30N 51°06' E 003°45'0 0.0
2018-Jul-05 13:00N 51°06' E 003°45'0 0.0
2018-Jul-05 12:30N 51°06' E 003°45'0 0.0
2018-Jul-05 11:54N 51°06' E 003°45'0 0.0
2018-Jul-05 11:30N 51°06' E 003°45'0 0.0
2018-Jul-05 10:57N 51°06' E 003°45'0 0.0
2018-Jul-05 10:27N 51°06' E 003°45'0 0.0
2018-Jul-05 10:00N 51°06' E 003°45'0 0.0
2018-Jul-05 09:18N 51°06' E 003°45'0 0.0
2018-Jul-05 09:00N 51°06' E 003°45'0 0.0
2018-Jul-05 08:30N 51°06' E 003°45'0 0.0
2018-Jul-05 08:00N 51°06' E 003°45'0 0.0
2018-Jul-05 07:30N 51°06' E 003°45'0 0.0
2018-Jul-05 07:00N 51°06' E 003°45'0 0.0
2018-Jul-05 06:30N 51°06' E 003°45'0 0.0
2018-Jul-05 06:00N 51°06' E 003°45'0 0.0
2018-Jul-05 05:30N 51°06' E 003°45'0 0.0
2018-Jul-05 05:00N 51°06' E 003°45'0 0.0
2018-Jul-05 04:30N 51°06' E 003°45'0 0.0
2018-Jul-05 03:57N 51°06' E 003°45'0 0.0
2018-Jul-05 03:30N 51°06' E 003°45'0 0.0
2018-Jul-05 03:00N 51°06' E 003°45'0 0.0
2018-Jul-05 02:30N 51°06' E 003°45'0 0.0
2018-Jul-05 02:00N 51°06' E 003°45'0 0.0
2018-Jul-05 01:30N 51°06' E 003°45'0 0.0
2018-Jul-05 00:51N 51°06' E 003°45'0 0.0
2018-Jul-05 00:30N 51°06' E 003°45'0 0.0
2018-Jul-05 00:00N 51°06' E 003°45'0 0.0
2018-Jul-04 23:30N 51°06' E 003°45'0 0.0
2018-Jul-04 22:51N 51°06' E 003°45'0 0.0
2018-Jul-04 22:24N 51°06' E 003°45'0 0.0
2018-Jul-04 22:00N 51°06' E 003°45'0 0.0
2018-Jul-04 21:24N 51°06' E 003°45'0 0.0
2018-Jul-04 20:54N 51°06' E 003°45'0 0.0
2018-Jul-04 20:30N 51°06' E 003°45'0 0.0
2018-Jul-04 20:00N 51°06' E 003°45'0 0.0
2018-Jul-04 19:27N 51°06' E 003°45'0 0.0
2018-Jul-04 18:57N 51°06' E 003°45'0 0.0
2018-Jul-04 18:30N 51°06' E 003°45'0 0.0
2018-Jul-04 17:57N 51°06' E 003°45'0 0.0
2018-Jul-04 17:27N 51°06' E 003°45'0 0.0
2018-Jul-04 17:00N 51°06' E 003°45'0 0.0
2018-Jul-04 16:27N 51°06' E 003°45'0 0.0
2018-Jul-04 16:00N 51°06' E 003°45'0 0.0
2018-Jul-04 15:23N 51°06' E 003°45'0 0.0
2018-Jul-04 14:57N 51°06' E 003°45'0 0.0
2018-Jul-04 14:30N 51°06' E 003°45'0 0.0
2018-Jul-04 14:00N 51°06' E 003°45'0 0.0
2018-Jul-04 13:27N 51°06' E 003°45'0 0.0
2018-Jul-04 12:57N 51°06' E 003°45'0 0.0
2018-Jul-04 12:27N 51°06' E 003°45'0 0.0
2018-Jul-04 12:00N 51°06' E 003°45'0 0.0
2018-Jul-04 11:30N 51°06' E 003°45'0 0.0
2018-Jul-04 10:59N 51°06' E 003°45'0 0.0
2018-Jul-04 10:26N 51°06' E 003°45'0 0.0
2018-Jul-04 10:00N 51°06' E 003°45'0 0.0
2018-Jul-04 09:29N 51°06' E 003°45'0 0.0
2018-Jul-04 08:59N 51°06' E 003°45'0 0.0
2018-Jul-04 08:26N 51°06' E 003°45'0 0.0
2018-Jul-04 07:59N 51°06' E 003°45'0 0.0
2018-Jul-04 07:26N 51°06' E 003°45'0 0.0
2018-Jul-04 07:00N 51°06' E 003°45'0 0.0
2018-Jul-04 06:30N 51°06' E 003°45'0 0.0
2018-Jul-04 05:56N 51°06' E 003°45'0 0.0
2018-Jul-04 05:30N 51°06' E 003°45'0 0.0
2018-Jul-04 04:56N 51°06' E 003°45'0 0.0
2018-Jul-04 04:21N 51°06' E 003°45'0 0.0
2018-Jul-04 03:59N 51°06' E 003°45'0 0.0
2018-Jul-04 03:24N 51°06' E 003°45'0 0.0
2018-Jul-04 02:59N 51°06' E 003°45'0 0.0
2018-Jul-04 02:29N 51°06' E 003°45'0 0.0
2018-Jul-04 01:53N 51°06' E 003°45'0 0.0
2018-Jul-04 01:26N 51°06' E 003°45'0 0.0
2018-Jul-04 01:00N 51°06' E 003°45'0 0.0
2018-Jul-04 00:27N 51°06' E 003°45'0 0.0
2018-Jul-03 23:59N 51°06' E 003°45'0 0.0
2018-Jul-03 23:30N 51°06' E 003°45'0 0.0
2018-Jul-03 22:59N 51°06' E 003°45'0 0.0
2018-Jul-03 22:29N 51°06' E 003°45'0 0.0
2018-Jul-03 21:59N 51°06' E 003°45'0 0.0
2018-Jul-03 21:29N 51°06' E 003°45'0 0.0
2018-Jul-03 20:56N 51°06' E 003°45'0 0.0
2018-Jul-03 20:29N 51°06' E 003°45'0 0.0
2018-Jul-03 19:59N 51°06' E 003°45'0 0.0
2018-Jul-03 19:29N 51°06' E 003°45'0 0.0
2018-Jul-03 18:57N 51°06' E 003°45'0 0.0
2018-Jul-03 18:29N 51°06' E 003°45'0 1.0
2018-Jul-03 18:00N 51°06' E 003°45'2 3.8
2018-Jul-03 17:31N 51°08' E 003°46'2 4.4
2018-Jul-03 17:00N 51°10' E 003°47'2 4.7
2018-Jul-03 16:30N 51°12' E 003°48'2 4.8
2018-Jul-03 16:00N 51°14' E 003°49'2 4.1
2018-Jul-03 15:30N 51°16' E 003°50'2 4.2
2018-Jul-03 15:00N 51°18' E 003°50'1 3.0
2018-Jul-03 14:30N 51°20' E 003°49'0 0.2
2018-Jul-03 14:00N 51°20' E 003°49'1 1.4
2018-Jul-03 13:30N 51°20' E 003°49'2 4.2
2018-Jul-03 13:00N 51°22' E 003°46'4 7.2
2018-Jul-03 12:30N 51°25' E 003°42'4 8.9
2018-Jul-03 12:00N 51°26' E 003°36'  

Dump ship's entire track history